Time;durP1;ratioP1;P1;durP2;ratioP2;P2;SDS_P1;SDS_P2;PMS_P1;PMS_P2;Temp;Humidity;BMP_temperature;BMP_pressure;BME280_temperature;BME280_humidity;BME280_pressure;Samples;Min_cycle;Max_cycle;Signal;HPM_P1;HPM_P2
2023/06/08 00:02:19;;;;;;;17.00;7.55;;;;;;;17.05;86.04;101431.19;5037905;28;20021;-71
2023/06/08 00:04:45;;;;;;;12.07;6.55;;;;;;;17.05;86.15;101430.41;5037722;28;20059;-71
2023/06/08 00:07:16;;;;;;;13.27;5.97;;;;;;;16.99;86.11;101431.09;5030765;28;20039;-71
2023/06/08 00:09:42;;;;;;;17.35;6.10;;;;;;;16.99;85.71;101425.88;5038695;28;20620;-71
2023/06/08 00:12:08;;;;;;;18.20;6.93;;;;;;;16.95;85.64;101430.66;5024512;28;20032;-71
2023/06/08 00:14:34;;;;;;;12.82;6.72;;;;;;;16.90;85.97;101430.41;5033463;28;20033;-71
2023/06/08 00:17:04;;;;;;;12.88;6.05;;;;;;;16.85;86.48;101430.94;5051616;28;20025;-71
2023/06/08 00:19:35;;;;;;;18.90;7.32;;;;;;;16.84;86.39;101421.47;5051323;28;20040;-71
2023/06/08 00:22:07;;;;;;;15.40;7.07;;;;;;;16.87;85.91;101426.34;5022439;28;20012;-71
2023/06/08 00:24:36;;;;;;;12.45;6.65;;;;;;;16.78;86.59;101427.38;5035932;28;20079;-71
2023/06/08 00:27:02;;;;;;;17.27;6.97;;;;;;;16.72;86.65;101422.88;5050751;28;20067;-71
2023/06/08 00:29:28;;;;;;;15.63;6.70;;;;;;;16.69;87.04;101415.41;5025120;28;20105;-71
2023/06/08 00:31:53;;;;;;;16.35;6.82;;;;;;;16.76;86.49;101416.28;5054258;28;20021;-71
2023/06/08 00:34:22;;;;;;;13.95;6.88;;;;;;;16.71;86.50;101414.22;5040921;28;20458;-71
2023/06/08 00:36:47;;;;;;;23.65;7.45;;;;;;;16.62;86.50;101417.13;5038832;28;20146;-71
2023/06/08 00:39:13;;;;;;;10.55;6.00;;;;;;;16.57;86.95;101422.09;5025498;28;21036;-71
2023/06/08 00:41:39;;;;;;;16.08;7.53;;;;;;;16.53;87.19;101421.63;5055167;28;20135;-71
2023/06/08 00:44:06;;;;;;;14.82;6.45;;;;;;;16.54;87.39;101420.66;5025094;28;20462;-71
2023/06/08 00:46:32;;;;;;;14.30;6.55;;;;;;;16.47;87.59;101417.94;5043916;28;20039;-71
2023/06/08 00:48:58;;;;;;;30.13;7.30;;;;;;;16.45;87.81;101419.09;5038207;28;20032;-71
2023/06/08 00:51:34;;;;;;;16.88;6.40;;;;;;;16.41;87.90;101416.03;5038573;28;20063;-71
2023/06/08 00:54:01;;;;;;;23.67;7.53;;;;;;;16.43;88.16;101413.25;5021275;28;20495;-71
2023/06/08 00:56:31;;;;;;;17.55;6.60;;;;;;;16.44;88.03;101420.09;5025277;28;20051;-71
2023/06/08 00:59:00;;;;;;;20.98;8.07;;;;;;;16.38;88.02;101421.63;5026842;28;20055;-71
2023/06/08 01:01:30;;;;;;;18.73;6.88;;;;;;;16.32;88.33;101425.75;5051863;28;20417;-71
2023/06/08 01:04:05;;;;;;;15.63;7.22;;;;;;;16.35;88.14;101419.38;5023983;28;20676;-71
2023/06/08 01:06:35;;;;;;;15.50;6.75;;;;;;;16.36;88.45;101415.75;5021359;28;20025;-71
2023/06/08 01:09:14;;;;;;;17.52;6.75;;;;;;;16.31;88.49;101412.84;5038285;28;20127;-71
2023/06/08 01:12:10;;;;;;;12.95;7.18;;;;;;;16.26;88.57;101408.16;5039930;28;20029;-71
2023/06/08 01:15:00;;;;;;;17.33;7.65;;;;;;;16.23;89.01;101410.31;5037727;28;20596;-71
2023/06/08 01:17:32;;;;;;;19.38;7.95;;;;;;;16.24;89.06;101406.72;5040895;28;20032;-71
2023/06/08 01:20:11;;;;;;;17.50;7.55;;;;;;;16.23;88.80;101411.13;5039200;28;20880;-71
2023/06/08 01:22:44;;;;;;;15.30;6.60;;;;;;;16.17;89.11;101411.03;5053378;28;20162;-71
2023/06/08 01:25:11;;;;;;;16.23;8.02;;;;;;;16.12;89.40;101404.53;5023740;28;20053;-71
2023/06/08 01:27:38;;;;;;;14.35;7.35;;;;;;;16.11;89.34;101409.94;5039776;28;20086;-71
2023/06/08 01:30:05;;;;;;;16.15;7.18;;;;;;;16.13;89.15;101405.34;5059398;28;20097;-71
2023/06/08 01:32:31;;;;;;;19.63;7.93;;;;;;;16.17;88.51;101405.81;5029827;28;20032;-71
2023/06/08 01:34:56;;;;;;;20.15;8.23;;;;;;;16.15;88.74;101404.16;5057383;28;20060;-71
2023/06/08 01:37:29;;;;;;;18.33;7.97;;;;;;;16.12;89.19;101401.09;5062924;28;20055;-71
2023/06/08 01:40:07;;;;;;;21.23;8.02;;;;;;;16.06;89.45;101405.22;5059760;28;20048;-71
2023/06/08 01:42:35;;;;;;;15.30;7.28;;;;;;;16.09;89.50;101406.69;5041868;28;20020;-71
2023/06/08 01:45:06;;;;;;;24.90;7.97;;;;;;;16.05;89.28;101411.47;5055905;28;20040;-71
2023/06/08 01:47:46;;;;;;;20.63;7.05;;;;;;;15.99;89.97;101406.94;5041201;28;20059;-71
2023/06/08 01:50:19;;;;;;;20.60;7.90;;;;;;;15.97;89.82;101406.28;5038772;28;20044;-71
2023/06/08 01:52:45;;;;;;;16.25;7.63;;;;;;;15.98;89.78;101401.91;5042809;28;20024;-71
2023/06/08 01:55:22;;;;;;;19.65;7.82;;;;;;;15.89;90.22;101403.75;5055410;28;20510;-71
2023/06/08 01:57:48;;;;;;;22.30;8.50;;;;;;;15.82;90.76;101397.59;5040571;28;20070;-71
2023/06/08 02:00:18;;;;;;;15.80;7.72;;;;;;;15.79;90.91;101397.97;5039659;28;20392;-72
2023/06/08 02:02:44;;;;;;;23.67;8.05;;;;;;;15.84;90.56;101400.84;5043023;28;20025;-71
2023/06/08 02:05:14;;;;;;;18.25;8.52;;;;;;;15.82;90.91;101403.63;5059631;28;20048;-71
2023/06/08 02:07:41;;;;;;;19.80;7.35;;;;;;;15.73;90.98;101399.44;5025840;28;20036;-71
2023/06/08 02:10:11;;;;;;;17.92;8.55;;;;;;;15.67;91.03;101398.34;5028100;28;20051;-71
2023/06/08 02:12:36;;;;;;;17.92;8.45;;;;;;;15.64;91.26;101393.47;5044038;28;20039;-71
2023/06/08 02:15:02;;;;;;;16.50;7.65;;;;;;;15.60;91.66;101394.81;5061147;28;20041;-71
2023/06/08 02:17:33;;;;;;;15.07;8.38;;;;;;;15.60;91.78;101392.19;5061745;28;20033;-71
2023/06/08 02:20:06;;;;;;;17.83;7.93;;;;;;;15.56;92.07;101388.31;5026442;28;20113;-71
2023/06/08 02:22:36;;;;;;;16.60;7.82;;;;;;;15.51;92.36;101388.00;5057332;28;20036;-71
2023/06/08 02:25:09;;;;;;;17.70;7.88;;;;;;;15.50;92.48;101381.13;5035167;28;20052;-71
2023/06/08 02:27:36;;;;;;;17.50;7.65;;;;;;;15.47;92.79;101392.75;5028070;28;20036;-71
2023/06/08 02:30:09;;;;;;;21.55;8.32;;;;;;;15.47;92.61;101394.56;5043978;28;20040;-71
2023/06/08 02:32:35;;;;;;;;;;;;;;;15.42;92.67;101389.84;5044310;28;20118;-71
2023/06/08 02:35:04;;;;;;;20.95;8.38;;;;;;;15.42;92.62;101392.47;5030899;28;19932;-71
2023/06/08 02:37:34;;;;;;;20.93;9.40;;;;;;;15.40;92.99;101391.03;5060857;28;20521;-71
2023/06/08 02:40:01;;;;;;;19.52;8.57;;;;;;;15.36;92.80;101396.59;5058019;28;20109;-71
2023/06/08 02:42:32;;;;;;;23.90;8.10;;;;;;;15.34;93.08;101388.09;5041896;28;20063;-71
2023/06/08 02:44:58;;;;;;;17.20;7.65;;;;;;;15.28;93.54;101385.38;5040398;28;20514;-71
2023/06/08 02:47:25;;;;;;;23.02;8.85;;;;;;;15.27;93.79;101389.78;5040715;28;21842;-71
2023/06/08 02:49:51;;;;;;;23.02;9.60;;;;;;;15.24;93.84;101395.38;5026328;28;20047;-72
2023/06/08 02:52:16;;;;;;;19.52;9.27;;;;;;;15.25;93.79;101396.16;5043520;28;20039;-71
2023/06/08 02:54:42;;;;;;;13.43;8.05;;;;;;;15.24;94.07;101389.31;5039922;28;20622;-71
2023/06/08 02:57:07;;;;;;;14.88;7.65;;;;;;;15.22;94.28;101391.28;5041277;28;20070;-71
2023/06/08 02:59:41;;;;;;;14.80;8.40;;;;;;;15.21;94.26;101390.47;5024883;28;20048;-71
2023/06/08 03:02:07;;;;;;;14.23;8.10;;;;;;;15.19;94.54;101387.22;5027698;28;20036;-71
2023/06/08 03:04:34;;;;;;;22.77;9.15;;;;;;;15.19;94.38;101392.44;5026345;28;20522;-71
2023/06/08 03:07:02;;;;;;;23.00;9.77;;;;;;;15.19;94.38;101392.44;5039483;28;20115;-71
2023/06/08 03:09:30;;;;;;;21.95;8.35;;;;;;;15.18;94.57;101389.03;5043610;28;20040;-72
2023/06/08 03:12:02;;;;;;;24.27;9.07;;;;;;;15.19;94.38;101395.88;5058758;28;20049;-71
2023/06/08 03:14:30;;;;;;;15.32;8.43;;;;;;;15.14;94.79;101385.13;5038575;28;20048;-71
2023/06/08 03:17:01;;;;;;;20.75;8.57;;;;;;;15.13;94.69;101386.13;5041617;28;20119;-71
2023/06/08 03:19:30;;;;;;;15.68;8.27;;;;;;;15.12;94.75;101386.28;5041769;28;20497;-71
2023/06/08 03:22:00;;;;;;;18.75;8.57;;;;;;;15.09;94.80;101378.81;5041950;28;20021;-71
2023/06/08 03:24:33;;;;;;;16.48;8.10;;;;;;;15.09;94.85;101386.63;5055823;28;20771;-71
2023/06/08 03:27:03;;;;;;;21.83;9.05;;;;;;;15.06;94.96;101381.75;5043520;28;20060;-71
2023/06/08 03:29:30;;;;;;;17.70;8.35;;;;;;;15.05;94.95;101388.78;5038761;28;20037;-71
2023/06/08 03:32:01;;;;;;;20.20;9.23;;;;;;;15.06;94.71;101389.59;5035224;28;20027;-72
2023/06/08 03:34:32;;;;;;;19.75;9.82;;;;;;;15.03;94.63;101379.47;5034804;28;20032;-71
2023/06/08 03:37:03;;;;;;;20.90;8.52;;;;;;;15.03;95.02;101384.69;5039805;28;20073;-71
2023/06/08 03:39:30;;;;;;;19.02;8.43;;;;;;;15.01;94.96;101382.25;5043359;28;20119;-71
2023/06/08 03:41:57;;;;;;;18.38;9.30;;;;;;;14.96;94.94;101376.75;5025131;28;20013;-71
2023/06/08 03:44:25;;;;;;;28.95;10.60;;;;;;;14.87;95.58;101382.97;5040555;28;20660;-71
2023/06/08 03:46:51;;;;;;;18.33;8.80;;;;;;;14.84;95.69;101376.28;5039965;28;20528;-71
2023/06/08 03:49:16;;;;;;;23.90;9.57;;;;;;;14.89;95.67;101381.00;5024956;28;20124;-71
2023/06/08 03:51:43;;;;;;;18.48;8.82;;;;;;;14.84;95.91;101372.88;5042688;28;20095;-71
2023/06/08 03:54:08;;;;;;;24.08;10.52;;;;;;;14.77;96.25;101375.34;5039085;28;20444;-71
2023/06/08 03:56:34;;;;;;;52.67;26.48;;;;;;;14.76;96.16;101379.75;5025948;28;20033;-71
2023/06/08 03:59:02;;;;;;;50.88;25.48;;;;;;;14.73;96.32;101379.25;5038973;28;20044;-71
2023/06/08 04:01:28;;;;;;;45.50;24.88;;;;;;;14.72;96.57;101375.03;5038236;28;20027;-71
2023/06/08 04:03:54;;;;;;;52.05;26.83;;;;;;;14.73;96.64;101374.03;5027629;28;20048;-71
2023/06/08 04:06:20;;;;;;;70.20;40.75;;;;;;;14.75;96.54;101379.94;5030386;28;20082;-71
2023/06/08 04:08:45;;;;;;;94.18;55.13;;;;;;;14.72;96.41;101372.44;5037574;28;20924;-71
2023/06/08 04:11:12;;;;;;;89.05;49.47;;;;;;;14.72;96.53;101375.03;5036540;28;20596;-71
2023/06/08 04:13:39;;;;;;;79.10;45.03;;;;;;;14.73;96.64;101374.88;5021954;28;20516;-71
2023/06/08 04:16:09;;;;;;;60.20;36.78;;;;;;;14.75;96.56;101380.75;5027442;28;20375;-71
2023/06/08 04:18:36;;;;;;;48.35;29.92;;;;;;;14.78;96.48;101377.78;5027915;28;20044;-71
2023/06/08 04:21:05;;;;;;;44.58;25.70;;;;;;;14.80;96.19;101377.59;5035674;28;20087;-72
2023/06/08 04:23:36;;;;;;;39.55;20.83;;;;;;;14.79;95.90;101381.22;5023860;28;20035;-71
2023/06/08 04:26:03;;;;;;;32.03;16.77;;;;;;;14.78;95.55;101385.59;5027767;28;20483;-71
2023/06/08 04:28:29;;;;;;;25.83;14.70;;;;;;;14.78;95.42;101374.34;5039256;28;20047;-71
2023/06/08 04:30:58;;;;;;;24.05;11.80;;;;;;;14.79;95.08;101378.59;5027503;28;20029;-71
2023/06/08 04:33:24;;;;;;;27.83;11.00;;;;;;;14.82;94.36;101374.84;5027472;28;20048;-71
2023/06/08 04:35:50;;;;;;;24.33;10.35;;;;;;;14.77;94.31;101381.38;5025817;28;20086;-71
2023/06/08 04:38:16;;;;;;;25.88;11.05;;;;;;;14.86;93.82;101381.34;5041858;28;20049;-71
2023/06/08 04:40:52;;;;;;;16.55;9.75;;;;;;;14.82;93.77;101373.03;5028186;28;20609;-71
2023/06/08 04:43:18;;;;;;;19.45;9.30;;;;;;;14.81;94.06;101381.06;5025272;28;20052;-71
2023/06/08 04:45:45;;;;;;;19.20;9.98;;;;;;;14.84;94.14;101380.69;5043537;28;20036;-71
2023/06/08 04:48:11;;;;;;;23.08;9.45;;;;;;;14.86;94.15;101371.72;5024930;28;20044;-71
2023/06/08 04:50:38;;;;;;;17.67;8.98;;;;;;;14.90;93.82;101378.22;5031027;28;20028;-72
2023/06/08 04:53:04;;;;;;;20.73;10.05;;;;;;;14.91;93.41;101382.47;5057413;28;20073;-72
2023/06/08 04:55:30;;;;;;;20.45;9.60;;;;;;;14.96;93.25;101382.78;5043462;28;20478;-71
2023/06/08 04:57:57;;;;;;;23.65;10.02;;;;;;;15.06;92.45;101381.75;5055772;28;20032;-72
2023/06/08 05:00:23;;;;;;;15.68;9.73;;;;;;;15.05;92.14;101377.50;5027151;28;20036;-71
2023/06/08 05:02:49;;;;;;;19.02;8.45;;;;;;;15.07;92.96;101375.53;5036590;28;20017;-71
2023/06/08 05:05:14;;;;;;;23.00;9.50;;;;;;;15.12;92.42;101371.41;5043779;28;20053;-71
2023/06/08 05:07:44;;;;;;;24.50;10.02;;;;;;;15.20;91.67;101381.03;5033266;28;20032;-71
2023/06/08 05:10:10;;;;;;;26.63;9.70;;;;;;;15.28;91.06;101380.97;5045077;28;20044;-72
2023/06/08 05:12:36;;;;;;;16.58;8.85;;;;;;;15.33;90.61;101383.88;5026948;28;20037;-71
2023/06/08 05:15:02;;;;;;;24.33;9.23;;;;;;;15.37;90.80;101381.75;5043480;28;20048;-72
2023/06/08 05:17:28;;;;;;;23.67;9.68;;;;;;;15.45;90.54;101379.06;5047174;28;20039;-71
2023/06/08 05:19:53;;;;;;;19.60;9.00;;;;;;;15.52;90.21;101381.78;5058387;28;20049;-71
2023/06/08 05:22:19;;;;;;;27.52;9.27;;;;;;;15.57;88.98;101393.34;5027059;28;20040;-71
2023/06/08 05:24:44;;;;;;;20.63;9.23;;;;;;;15.68;88.21;101389.50;5023257;28;20443;-71
2023/06/08 05:27:10;;;;;;;17.52;9.40;;;;;;;15.76;88.28;101396.50;5062847;28;20479;-71
2023/06/08 05:29:36;;;;;;;18.65;9.60;;;;;;;15.90;88.18;101381.88;5041379;28;20045;-72
2023/06/08 05:32:02;;;;;;;19.52;9.07;;;;;;;15.98;87.93;101380.97;5059789;28;20029;-72
2023/06/08 05:34:27;;;;;;;22.48;9.80;;;;;;;16.05;86.21;101384.47;5042064;28;20037;-72
2023/06/08 05:36:54;;;;;;;21.77;9.48;;;;;;;16.21;85.79;101384.34;5042385;28;20540;-72
2023/06/08 05:39:20;;;;;;;17.08;8.40;;;;;;;16.30;85.40;101380.66;5040184;28;20045;-71
2023/06/08 05:41:45;;;;;;;23.17;9.82;;;;;;;16.35;84.76;101383.53;5026677;28;20047;-72
2023/06/08 05:44:11;;;;;;;26.17;9.40;;;;;;;16.53;83.75;101374.50;5061082;28;20056;-72
2023/06/08 05:46:37;;;;;;;22.55;9.15;;;;;;;16.59;82.59;101372.97;5047774;28;20028;-72
2023/06/08 05:49:02;;;;;;;19.75;8.25;;;;;;;16.74;82.82;101384.25;5057817;28;20291;-72
2023/06/08 05:51:27;;;;;;;23.17;8.90;;;;;;;16.93;82.19;101375.03;5045899;28;21880;-72
2023/06/08 05:53:53;;;;;;;24.35;9.38;;;;;;;17.10;80.90;101365.97;5057679;28;20044;-72
2023/06/08 05:56:18;;;;;;;25.67;9.30;;;;;;;17.23;80.24;101370.50;5023610;28;20024;-72
2023/06/08 05:58:44;;;;;;;20.15;8.50;;;;;;;17.42;79.63;101373.53;5045094;28;20048;-72
2023/06/08 06:01:09;;;;;;;22.80;9.77;;;;;;;17.47;78.72;101373.78;5043889;28;20067;-72
2023/06/08 06:03:38;;;;;;;19.15;8.95;;;;;;;17.55;78.10;101371.03;5062534;28;20051;-72
2023/06/08 06:06:04;;;;;;;22.10;9.50;;;;;;;17.71;78.38;101367.34;5029131;28;20033;-72
2023/06/08 06:08:29;;;;;;;22.60;8.80;;;;;;;17.79;75.71;101366.41;5059320;28;20044;-72
2023/06/08 06:10:55;;;;;;;25.48;9.52;;;;;;;18.04;75.61;101370.22;5059865;28;20029;-72
2023/06/08 06:13:21;;;;;;;17.85;9.57;;;;;;;18.13;76.41;101373.53;5056290;28;20487;-72
2023/06/08 06:15:47;;;;;;;21.70;10.00;;;;;;;18.23;74.19;101367.94;5056707;28;20025;-72
2023/06/08 06:18:12;;;;;;;23.85;9.85;;;;;;;18.41;73.39;101372.69;5059195;28;20589;-72
2023/06/08 06:20:38;;;;;;;22.25;8.90;;;;;;;18.32;73.45;101371.22;5026676;28;20043;-72
2023/06/08 06:23:03;;;;;;;24.33;9.52;;;;;;;18.56;72.08;101365.50;5056258;28;20660;-72
2023/06/08 06:25:35;;;;;;;20.08;9.35;;;;;;;18.44;71.35;101367.03;5031155;28;20036;-72
2023/06/08 06:28:05;;;;;;;23.85;9.57;;;;;;;18.28;72.92;101374.22;5051838;28;20099;-72
2023/06/08 06:30:31;;;;;;;18.80;9.43;;;;;;;18.28;73.80;101374.22;5044532;28;20048;-72
2023/06/08 06:32:56;;;;;;;22.27;9.88;;;;;;;18.31;73.04;101377.47;5043673;28;20056;-73
2023/06/08 06:35:22;;;;;;;20.42;8.13;;;;;;;18.62;72.48;101377.84;5040524;28;20495;-72
2023/06/08 06:37:47;;;;;;;31.92;13.60;;;;;;;18.99;72.02;101370.53;5059605;28;20032;-72
2023/06/08 06:40:13;;;;;;;23.80;9.02;;;;;;;19.38;70.01;101379.53;5041173;28;22296;-72
2023/06/08 06:42:39;;;;;;;21.42;8.68;;;;;;;18.96;69.86;101378.00;5060523;28;20048;-72
2023/06/08 06:45:30;;;;;;;18.15;8.38;;;;;;;18.79;70.59;101378.31;5042727;28;20052;-72
2023/06/08 06:47:56;;;;;;;19.63;8.13;;;;;;;18.62;72.14;101380.47;5042157;28;20517;-72
2023/06/08 06:50:21;;;;;;;24.40;8.95;;;;;;;18.68;72.84;101374.44;5061170;28;20035;-72
2023/06/08 06:52:47;;;;;;;17.98;7.63;;;;;;;19.44;70.29;101377.91;5031178;28;20029;-72
2023/06/08 06:55:12;;;;;;;18.13;8.02;;;;;;;20.03;67.61;101377.09;5057825;28;20044;-72
2023/06/08 06:57:40;;;;;;;14.90;8.13;;;;;;;20.31;66.22;101375.25;5040269;28;20098;-72
2023/06/08 07:00:10;;;;;;;26.35;9.75;;;;;;;20.26;64.86;101381.13;5056151;28;20048;-72
2023/06/08 07:02:38;;;;;;;18.25;8.45;;;;;;;20.48;65.63;101376.41;5036846;28;20085;-72
2023/06/08 07:05:07;;;;;;;15.85;8.52;;;;;;;20.75;63.82;101373.69;5041933;28;20615;-72
2023/06/08 07:07:34;;;;;;;21.50;8.52;;;;;;;20.71;63.98;101370.66;5057031;28;20135;-72
2023/06/08 07:09:59;;;;;;;15.20;8.50;;;;;;;21.14;63.80;101369.25;5041524;28;20040;-72
2023/06/08 07:12:25;;;;;;;16.92;8.40;;;;;;;21.36;63.80;101369.69;5041457;28;20024;-72
2023/06/08 07:14:50;;;;;;;16.55;8.40;;;;;;;21.13;63.02;101368.41;5054396;28;20048;-72
2023/06/08 07:17:16;;;;;;;17.98;9.10;;;;;;;20.57;64.17;101364.63;5031275;28;20040;-72
2023/06/08 07:19:41;;;;;;;17.60;8.18;;;;;;;20.37;66.08;101369.16;5041612;28;20051;-72
2023/06/08 07:22:07;;;;;;;22.35;9.45;;;;;;;20.79;65.55;101365.19;5040678;28;20029;-72
2023/06/08 07:24:32;;;;;;;24.25;8.52;;;;;;;21.70;63.21;101368.44;5039643;28;20424;-72
2023/06/08 07:26:58;;;;;;;22.25;8.43;;;;;;;22.14;61.29;101360.53;5039770;28;20025;-72
2023/06/08 07:29:24;;;;;;;15.95;8.35;;;;;;;22.63;58.31;101363.25;5036910;28;20063;-72
2023/06/08 07:31:49;;;;;;;18.55;8.65;;;;;;;22.57;58.17;101362.31;5057810;28;20398;-72
2023/06/08 07:34:18;;;;;;;19.40;9.27;;;;;;;22.39;58.56;101368.41;5036737;28;20049;-72
2023/06/08 07:36:45;;;;;;;20.70;8.32;;;;;;;22.47;57.79;101362.84;5029260;28;20036;-72
2023/06/08 07:39:10;;;;;;;20.88;8.48;;;;;;;22.59;57.90;101362.88;5058547;28;20557;-72
2023/06/08 07:41:36;;;;;;;17.67;8.63;;;;;;;23.10;57.04;101363.47;5018894;28;20029;-72
2023/06/08 07:44:02;;;;;;;17.48;8.38;;;;;;;23.40;55.75;101358.13;5026203;28;20087;-72
2023/06/08 07:46:27;;;;;;;15.50;7.15;;;;;;;23.67;55.35;101362.97;5056453;28;20083;-72
2023/06/08 07:48:53;;;;;;;17.85;8.60;;;;;;;23.70;54.83;101352.72;5057108;28;20499;-72
2023/06/08 07:51:18;;;;;;;15.80;7.28;;;;;;;23.69;55.03;101352.94;5038607;28;20021;-73
2023/06/08 07:53:44;;;;;;;20.25;8.05;;;;;;;23.79;54.17;101353.22;5053547;28;20053;-72
2023/06/08 07:56:10;;;;;;;16.67;8.18;;;;;;;23.98;53.65;101350.44;5036663;28;20078;-73
2023/06/08 07:58:35;;;;;;;17.30;7.35;;;;;;;24.17;53.71;101359.06;5053602;28;20063;-73
2023/06/08 08:01:01;;;;;;;13.90;7.60;;;;;;;24.34;52.90;101348.53;5056436;28;20028;-72
2023/06/08 08:03:27;;;;;;;14.93;7.78;;;;;;;24.42;52.07;101348.97;5055784;28;20067;-73
2023/06/08 08:05:52;;;;;;;18.27;7.35;;;;;;;24.28;52.72;101348.44;5043835;28;20040;-73
2023/06/08 08:08:18;;;;;;;16.33;8.00;;;;;;;24.45;52.41;101347.72;5058586;28;20075;-72
2023/06/08 08:10:44;;;;;;;18.33;7.65;;;;;;;24.64;51.92;101345.72;5057579;28;20086;-73
2023/06/08 08:13:11;;;;;;;18.50;7.18;;;;;;;24.81;51.93;101337.78;5038446;28;20093;-73
2023/06/08 08:15:39;;;;;;;19.88;9.07;;;;;;;24.93;50.38;101335.88;5057101;28;20550;-73
2023/06/08 08:18:05;;;;;;;15.30;8.80;;;;;;;24.28;51.00;101345.00;5054541;28;20037;-73
2023/06/08 08:20:30;;;;;;;16.60;7.57;;;;;;;24.54;52.62;101343.66;5041274;28;20027;-73
2023/06/08 08:22:56;;;;;;;20.52;8.45;;;;;;;24.72;51.61;101347.19;5041023;28;20522;-72
2023/06/08 08:25:21;;;;;;;17.92;8.50;;;;;;;24.74;51.80;101340.59;5043324;28;20044;-72
2023/06/08 08:27:47;;;;;;;14.68;6.65;;;;;;;25.16;50.71;101342.09;5028287;28;20032;-73
2023/06/08 08:30:13;;;;;;;15.15;7.13;;;;;;;25.34;50.32;101331.28;5038700;28;20044;-73
2023/06/08 08:32:39;;;;;;;15.93;7.22;;;;;;;25.69;48.96;101340.78;5056114;28;20029;-73
2023/06/08 08:35:05;;;;;;;14.32;6.97;;;;;;;25.60;48.61;101340.41;5053734;28;20047;-73
2023/06/08 08:37:31;;;;;;;14.85;7.32;;;;;;;24.99;49.83;101342.88;5039394;28;20021;-73
2023/06/08 08:40:00;;;;;;;15.65;8.13;;;;;;;24.98;49.89;101337.81;5058205;28;20588;-73
2023/06/08 08:42:30;;;;;;;16.33;7.22;;;;;;;25.21;49.74;101344.84;5045908;28;20037;-72
2023/06/08 08:44:57;;;;;;;16.40;7.50;;;;;;;25.03;49.74;101343.19;5055194;28;20897;-73
2023/06/08 08:47:26;;;;;;;17.67;8.43;;;;;;;25.30;49.03;101335.47;5031711;28;20029;-73
2023/06/08 08:50:00;;;;;;;17.25;7.03;;;;;;;25.64;49.15;101333.56;5030525;28;20040;-73
2023/06/08 08:52:29;;;;;;;13.73;6.80;;;;;;;25.75;48.34;101333.69;5044062;28;20029;-73
2023/06/08 08:54:57;;;;;;;16.95;7.95;;;;;;;25.37;49.21;101335.28;5048824;28;20051;-74
2023/06/08 08:57:27;;;;;;;15.60;7.72;;;;;;;25.69;48.52;101330.16;5042213;28;20040;-74
2023/06/08 08:59:58;;;;;;;15.43;7.10;;;;;;;25.63;48.70;101329.28;5063805;28;20036;-74
2023/06/08 09:02:25;;;;;;;14.95;6.82;;;;;;;25.50;49.18;101323.53;5039983;28;20021;-75
2023/06/08 09:04:54;;;;;;;19.48;7.43;;;;;;;25.75;49.42;101321.25;5039611;28;20056;-72
2023/06/08 09:07:24;;;;;;;19.33;7.50;;;;;;;26.03;48.74;101320.31;5061552;28;20025;-72
2023/06/08 09:10:12;;;;;;;19.88;8.70;;;;;;;26.16;48.06;101319.16;5059404;28;20085;-72
2023/06/08 09:12:42;;;;;;;16.45;7.43;;;;;;;26.52;47.88;101316.88;5026862;28;20033;-73
2023/06/08 09:15:09;;;;;;;14.00;6.97;;;;;;;26.80;47.16;101320.34;5029036;28;20037;-73
2023/06/08 09:17:37;;;;;;;18.50;7.30;;;;;;;26.90;46.42;101314.31;5031451;28;20028;-73
2023/06/08 09:20:10;;;;;;;15.68;7.43;;;;;;;26.03;46.72;101319.50;5032235;28;20053;-73
2023/06/08 09:22:36;;;;;;;;;;;;;;;26.12;46.66;101327.84;5042281;28;20515;-73
2023/06/08 09:25:06;;;;;;;13.40;6.90;;;;;;;26.25;47.59;101329.34;5060648;28;19932;-73
2023/06/08 09:27:35;;;;;;;18.48;7.57;;;;;;;26.19;48.16;101323.94;5040773;28;20124;-73
2023/06/08 09:30:01;;;;;;;12.60;7.15;;;;;;;25.91;48.02;101321.44;5042702;28;20044;-73
2023/06/08 09:32:33;;;;;;;22.77;8.13;;;;;;;26.06;48.60;101323.53;5030928;28;20033;-74
2023/06/08 09:35:03;;;;;;;18.77;8.47;;;;;;;25.79;48.82;101324.22;5021823;28;20033;-73
2023/06/08 09:37:33;;;;;;;16.25;7.53;;;;;;;25.95;49.25;101317.28;4991008;28;20457;-73
2023/06/08 09:40:00;;;;;;;16.17;8.13;;;;;;;26.12;48.56;101314.56;4988463;28;20111;-73
2023/06/08 09:42:50;;;;;;;14.48;7.20;;;;;;;26.54;47.80;101314.78;5008260;28;20029;-73
2023/06/08 09:45:17;;;;;;;14.93;7.82;;;;;;;26.45;47.40;101302.97;4987530;28;20476;-73
2023/06/08 09:47:44;;;;;;;16.95;7.95;;;;;;;26.20;47.50;101309.63;4967935;28;20034;-73
2023/06/08 09:50:12;;;;;;;13.93;7.18;;;;;;;26.53;48.04;101307.84;4992087;28;20053;-73
2023/06/08 09:52:38;;;;;;;16.60;8.30;;;;;;;26.17;48.36;101304.00;4980253;28;20054;-73
2023/06/08 09:55:06;;;;;;;11.75;7.05;;;;;;;25.82;48.42;101308.59;4998404;28;20062;-73
2023/06/08 09:57:37;;;;;;;12.77;7.18;;;;;;;26.20;48.03;101303.50;5014483;28;20065;-72
2023/06/08 10:00:17;;;;;;;16.70;8.02;;;;;;;26.33;48.79;101300.44;5017131;28;20558;-73
2023/06/08 10:03:21;;;;;;;14.95;6.55;;;;;;;26.66;48.03;101293.38;4982994;28;20018;-72
2023/06/08 10:05:48;;;;;;;18.73;8.07;;;;;;;26.68;47.97;101287.81;5003708;28;20160;-72
2023/06/08 10:08:21;;;;;;;16.15;6.80;;;;;;;26.87;47.76;101290.91;4999828;28;20137;-73
2023/06/08 10:10:47;;;;;;;16.02;6.78;;;;;;;26.82;47.99;101288.19;4998907;28;20025;-72
2023/06/08 10:13:15;;;;;;;16.15;8.57;;;;;;;26.68;47.01;101291.25;5003093;28;20033;-72
2023/06/08 10:15:42;;;;;;;12.80;7.47;;;;;;;26.92;47.71;101288.28;5002239;28;20045;-72
2023/06/08 10:18:09;;;;;;;16.63;7.88;;;;;;;27.07;46.89;101282.25;4999327;28;20034;-72
2023/06/08 10:20:35;;;;;;;15.82;7.32;;;;;;;26.93;47.26;101289.88;4983905;28;20092;-72
2023/06/08 10:23:03;;;;;;;19.15;8.32;;;;;;;26.97;46.77;101277.66;4980961;28;20038;-72
2023/06/08 10:25:30;;;;;;;15.15;7.40;;;;;;;26.69;47.53;101284.06;4976167;28;20039;-72
2023/06/08 10:28:09;;;;;;;16.35;7.57;;;;;;;26.51;47.92;101279.91;4994038;28;20052;-73
2023/06/08 10:30:40;;;;;;;16.77;7.65;;;;;;;26.29;48.77;101287.91;4988819;28;20149;-73
2023/06/08 10:33:15;;;;;;;11.95;7.60;;;;;;;26.78;48.17;101274.59;4980839;28;20030;-72
2023/06/08 10:35:43;;;;;;;14.23;7.40;;;;;;;27.22;47.60;101276.25;4971025;28;20037;-72
2023/06/08 10:38:13;;;;;;;24.02;11.82;;;;;;;27.10;46.64;101273.78;4985108;28;20663;-73
2023/06/08 10:40:42;;;;;;;16.73;7.57;;;;;;;27.08;46.61;101270.56;5004789;28;20293;-72
2023/06/08 10:43:08;;;;;;;18.98;7.40;;;;;;;26.67;47.63;101267.56;5001549;28;20033;-72
2023/06/08 10:45:37;;;;;;;18.15;7.25;;;;;;;26.90;47.67;101259.28;5009245;28;20042;-71
2023/06/08 10:48:08;;;;;;;16.05;6.70;;;;;;;27.12;46.91;101264.47;5014168;28;20201;-72
2023/06/08 10:50:45;;;;;;;17.65;7.57;;;;;;;27.26;46.18;101264.88;4997132;28;20038;-72
2023/06/08 10:53:11;;;;;;;16.15;7.55;;;;;;;27.34;46.40;101247.63;5011017;28;20022;-71
2023/06/08 10:55:41;;;;;;;16.77;7.70;;;;;;;27.47;46.87;101247.16;4961135;28;20388;-71
2023/06/08 10:58:20;;;;;;;17.00;7.00;;;;;;;27.40;47.23;101251.09;4984556;28;20831;-71
2023/06/08 11:00:49;;;;;;;13.82;7.03;;;;;;;27.67;46.30;101253.63;4988097;28;20093;-72
2023/06/08 11:03:20;;;;;;;19.83;8.02;;;;;;;27.46;46.77;101247.41;4988822;28;20058;-72
2023/06/08 11:05:50;;;;;;;14.38;7.13;;;;;;;27.58;46.72;101243.47;5004506;28;20029;-71
2023/06/08 11:08:17;;;;;;;13.90;6.55;;;;;;;27.63;46.29;101241.91;5003324;28;20404;-71
2023/06/08 11:10:44;;;;;;;14.25;7.78;;;;;;;27.52;45.80;101239.19;4988184;28;20649;-72
2023/06/08 11:13:18;;;;;;;14.93;7.20;;;;;;;27.45;47.19;101243.94;4986962;28;20159;-72
2023/06/08 11:15:47;;;;;;;16.20;6.65;;;;;;;27.81;47.14;101228.13;4986878;28;20133;-72
2023/06/08 11:18:13;;;;;;;16.63;8.00;;;;;;;27.94;46.00;101234.84;4984655;28;20042;-72
2023/06/08 11:20:41;;;;;;;16.80;7.55;;;;;;;28.04;45.10;101232.22;4970231;28;20058;-72
2023/06/08 11:23:11;;;;;;;16.30;7.50;;;;;;;27.93;45.35;101230.59;4990172;28;20128;-72